Time;durP1;ratioP1;P1;durP2;ratioP2;P2;SDS_P1;SDS_P2;PMS_P1;PMS_P2;Temp;Humidity;BMP_temperature;BMP_pressure;BME280_temperature;BME280_humidity;BME280_pressure;Samples;Min_cycle;Max_cycle;Signal;HPM_P1;HPM_P2
2021/07/27 18:22:02;;;;;;;8.32;2.15;;;;;;;24.43;50.79;100625.28;4937748;28;20505;-72
2021/07/27 18:24:28;;;;;;;14.60;2.42;;;;;;;24.44;50.59;100630.41;4953017;29;20047;-74
2021/07/27 18:26:53;;;;;;;11.40;2.78;;;;;;;24.42;50.84;100629.81;4961775;29;20105;-71
2021/07/27 18:29:19;;;;;;;5.93;2.28;;;;;;;24.44;50.93;100633.09;4935773;29;20031;-73
2021/07/27 18:31:45;;;;;;;12.43;4.13;;;;;;;24.44;51.17;100630.41;4934598;29;20039;-73
2021/07/27 18:34:11;;;;;;;12.27;4.28;;;;;;;24.45;51.15;100629.34;4951990;29;20685;-71
2021/07/27 18:36:37;;;;;;;15.98;4.85;;;;;;;24.48;51.00;100639.63;4935361;29;20035;-72
2021/07/27 18:39:04;;;;;;;11.10;4.45;;;;;;;24.49;51.08;100645.81;4951536;29;20479;-72
2021/07/27 18:41:30;;;;;;;15.65;4.30;;;;;;;24.48;51.06;100638.81;4952285;29;20053;-70
2021/07/27 18:43:55;;;;;;;18.30;4.20;;;;;;;24.49;51.10;100643.13;4952131;29;20129;-69
2021/07/27 18:46:21;;;;;;;9.73;3.22;;;;;;;24.49;50.99;100649.31;4951433;29;20071;-71
2021/07/27 18:48:46;;;;;;;8.50;3.15;;;;;;;24.51;51.14;100650.94;4955307;28;20627;-73
2021/07/27 18:51:12;;;;;;;7.60;2.97;;;;;;;24.50;51.19;100660.84;4958108;28;20065;-73
2021/07/27 18:53:38;;;;;;;10.88;3.15;;;;;;;24.51;50.96;100651.75;4955589;28;20035;-72
2021/07/27 18:56:04;;;;;;;12.25;2.75;;;;;;;24.52;50.98;100656.06;4918125;29;20377;-71
2021/07/27 18:58:30;;;;;;;9.02;3.08;;;;;;;24.52;51.12;100657.94;4952195;29;20035;-71
2021/07/27 19:00:56;;;;;;;7.45;2.47;;;;;;;24.53;50.87;100659.56;4931200;28;20054;-73
2021/07/27 19:03:22;;;;;;;9.65;2.38;;;;;;;24.53;51.08;100657.69;4936990;29;20067;-73
2021/07/27 19:05:47;;;;;;;9.52;2.60;;;;;;;24.53;50.88;100654.19;4954961;28;20063;-72
2021/07/27 19:08:13;;;;;;;11.15;2.75;;;;;;;24.52;51.01;100649.88;4932272;29;20031;-71
2021/07/27 19:10:39;;;;;;;14.32;2.97;;;;;;;24.52;50.94;100658.75;4959609;28;20098;-70
2021/07/27 19:13:04;;;;;;;6.03;2.00;;;;;;;24.51;51.04;100656.31;4946145;28;20039;-71
2021/07/27 19:15:30;;;;;;;7.35;2.60;;;;;;;24.49;50.74;100657.34;4963943;28;20117;-72
2021/07/27 19:17:55;;;;;;;5.50;2.38;;;;;;;24.49;50.77;100662.72;4961201;28;20110;-70
2021/07/27 19:20:21;;;;;;;9.43;2.75;;;;;;;24.48;50.68;100655.72;4948191;28;20051;-72
2021/07/27 19:22:47;;;;;;;6.88;2.17;;;;;;;24.49;50.79;100656.53;4916444;29;20119;-72
2021/07/27 19:25:13;;;;;;;8.98;2.80;;;;;;;24.47;50.88;100659.44;4955071;28;20042;-70
2021/07/27 19:27:38;;;;;;;4.97;2.28;;;;;;;24.47;50.83;100664.00;4957745;28;20109;-70
2021/07/27 19:30:05;;;;;;;6.28;2.30;;;;;;;24.47;50.85;100661.31;4950088;28;20038;-73
2021/07/27 19:32:35;;;;;;;6.35;1.88;;;;;;;24.47;50.58;100658.63;4953786;28;20039;-73
2021/07/27 19:35:00;;;;;;;8.10;2.05;;;;;;;24.46;50.67;100657.00;4954566;28;20508;-72
2021/07/27 19:37:26;;;;;;;5.78;2.63;;;;;;;24.47;50.56;100658.63;4955787;28;20040;-72
2021/07/27 19:39:53;;;;;;;5.50;2.22;;;;;;;24.45;50.44;100661.53;4953961;28;20384;-72
2021/07/27 19:42:38;;;;;;;7.78;2.35;;;;;;;24.45;50.32;100661.53;4939989;28;20042;-69
2021/07/27 19:45:15;;;;;;;3.30;2.17;;;;;;;24.46;50.38;100659.69;4956536;28;20038;-69
2021/07/27 19:48:13;;;;;;;4.78;2.10;;;;;;;24.46;50.51;100652.47;4956435;28;20054;-70
2021/07/27 19:50:26;;;;;;;5.10;2.10;;;;;;;24.46;50.19;100647.09;4944418;28;20071;-69
2021/07/27 19:52:53;;;;;;;5.57;1.92;;;;;;;24.47;50.10;100659.44;4947102;29;20481;-69
2021/07/27 19:55:19;;;;;;;5.18;2.10;;;;;;;24.47;50.45;100653.28;4942961;29;20039;-69
2021/07/27 19:57:44;;;;;;;4.25;2.30;;;;;;;24.46;50.13;100659.69;4948526;29;20035;-69
2021/07/27 20:00:10;;;;;;;3.67;2.17;;;;;;;24.46;50.08;100657.81;4945604;28;20043;-71
2021/07/27 20:02:36;;;;;;;4.90;2.35;;;;;;;24.44;50.19;100654.53;4948265;29;20114;-70
2021/07/27 20:05:01;;;;;;;6.13;2.38;;;;;;;24.44;50.31;100653.72;4946348;29;20066;-69
2021/07/27 20:07:27;;;;;;;6.70;2.53;;;;;;;24.44;50.08;100648.34;4948001;29;20047;-68
2021/07/27 20:09:52;;;;;;;5.43;2.65;;;;;;;24.44;49.97;100646.50;4947598;29;20042;-69
2021/07/27 20:12:18;;;;;;;4.68;2.15;;;;;;;24.45;50.15;100650.81;4947472;29;20081;-67
2021/07/27 20:14:44;;;;;;;3.50;2.50;;;;;;;24.45;49.94;100645.44;4947043;29;20078;-68
2021/07/27 20:17:10;;;;;;;5.82;2.20;;;;;;;24.46;50.12;100648.97;4944282;29;20491;-69
2021/07/27 20:19:35;;;;;;;4.18;2.50;;;;;;;24.47;49.96;100648.72;4945055;29;20081;-69
2021/07/27 20:22:01;;;;;;;6.13;2.58;;;;;;;24.46;49.91;100647.09;4945104;29;20058;-69
2021/07/27 20:24:26;;;;;;;5.32;2.20;;;;;;;24.47;49.78;100653.28;4946743;29;20729;-70
2021/07/27 20:26:52;;;;;;;5.40;2.60;;;;;;;24.47;49.97;100648.72;4946632;29;20073;-71
2021/07/27 20:29:17;;;;;;;5.18;2.40;;;;;;;24.46;49.56;100652.47;4924918;29;20302;-70
2021/07/27 20:31:43;;;;;;;3.05;1.83;;;;;;;24.45;49.41;100650.81;4945802;29;20067;-70
2021/07/27 20:34:10;;;;;;;5.28;2.72;;;;;;;24.45;49.61;100653.47;4946189;29;20130;-70
2021/07/27 20:36:36;;;;;;;4.90;2.90;;;;;;;24.43;49.47;100652.91;4948544;28;20031;-68
2021/07/27 20:39:02;;;;;;;4.93;2.10;;;;;;;24.44;49.53;100659.09;4944711;28;20035;-71
2021/07/27 20:41:28;;;;;;;4.65;2.10;;;;;;;24.44;49.52;100657.22;4958554;28;20050;-69
2021/07/27 20:43:53;;;;;;;4.72;2.35;;;;;;;24.43;49.71;100660.94;4954326;28;20544;-69
2021/07/27 20:46:19;;;;;;;4.70;2.40;;;;;;;24.42;49.55;100650.47;4948601;28;20035;-68
2021/07/27 20:48:44;;;;;;;5.53;2.40;;;;;;;24.41;49.42;100646.16;4950159;28;20039;-70
2021/07/27 20:51:13;;;;;;;5.68;2.55;;;;;;;24.41;49.35;100641.59;4946296;28;20110;-70
2021/07/27 20:53:40;;;;;;;6.35;2.78;;;;;;;24.42;49.49;100645.09;4946117;28;20121;-69
2021/07/27 20:56:05;;;;;;;11.32;2.65;;;;;;;24.42;49.65;100647.78;4945148;29;20230;-71
2021/07/27 20:58:31;;;;;;;4.40;2.35;;;;;;;24.40;49.35;100648.00;4949291;28;20523;-71
2021/07/27 21:00:58;;;;;;;4.28;2.10;;;;;;;24.40;49.56;100648.00;4950254;28;20039;-68
2021/07/27 21:03:23;;;;;;;3.78;2.17;;;;;;;24.41;49.44;100648.81;4951156;28;20049;-68
2021/07/27 21:05:49;;;;;;;4.72;2.47;;;;;;;24.41;49.28;100649.63;4952017;28;20108;-67
2021/07/27 21:08:14;;;;;;;3.50;2.47;;;;;;;24.41;49.29;100646.97;4950162;28;20035;-67
2021/07/27 21:10:40;;;;;;;4.05;2.20;;;;;;;24.42;49.26;100647.78;4949433;28;20113;-68
2021/07/27 21:13:07;;;;;;;5.07;2.30;;;;;;;24.42;49.28;100645.91;4953544;29;20440;-65
2021/07/27 21:15:32;;;;;;;3.58;2.00;;;;;;;24.44;49.10;100640.31;4952888;29;20122;-66
2021/07/27 21:17:58;;;;;;;6.95;2.50;;;;;;;24.43;49.11;100642.19;4953563;29;20059;-67
2021/07/27 21:20:23;;;;;;;5.70;2.38;;;;;;;24.44;48.75;100641.13;4953992;28;20039;-66
2021/07/27 21:22:49;;;;;;;5.70;2.40;;;;;;;24.45;48.96;100634.72;4953218;29;20464;-68
2021/07/27 21:25:16;;;;;;;5.93;2.35;;;;;;;24.46;48.52;100640.91;4952907;29;20042;-66
2021/07/27 21:27:41;;;;;;;4.65;2.22;;;;;;;24.46;48.66;100641.75;4954051;29;20038;-66
2021/07/27 21:30:08;;;;;;;5.55;2.42;;;;;;;24.46;48.50;100644.41;4950573;29;20032;-68
2021/07/27 21:32:35;;;;;;;3.90;2.30;;;;;;;24.48;48.41;100641.50;4953418;29;20093;-66
2021/07/27 21:35:01;;;;;;;4.20;2.30;;;;;;;24.48;48.56;100633.47;4958351;28;20524;-66
2021/07/27 21:37:26;;;;;;;4.75;2.50;;;;;;;24.49;48.37;100633.22;4958598;28;20163;-68
2021/07/27 21:39:52;;;;;;;3.42;2.10;;;;;;;24.48;48.32;100633.47;4939983;29;20404;-68
2021/07/27 21:42:18;;;;;;;5.68;2.38;;;;;;;24.48;48.21;100634.28;4960209;28;20465;-66
2021/07/27 21:44:43;;;;;;;5.95;2.53;;;;;;;24.48;48.38;100633.47;4956583;28;20031;-66
2021/07/27 21:47:10;;;;;;;4.55;2.50;;;;;;;24.48;48.23;100622.72;4960206;28;20429;-68
2021/07/27 21:49:36;;;;;;;4.00;2.50;;;;;;;24.47;48.45;100613.88;4946779;28;20041;-69
2021/07/27 21:52:01;;;;;;;3.17;2.08;;;;;;;24.49;48.65;100619.00;4957128;28;20054;-69
2021/07/27 21:54:27;;;;;;;4.13;2.45;;;;;;;24.49;48.63;100614.44;4956400;28;20027;-70
2021/07/27 21:56:52;;;;;;;4.93;2.15;;;;;;;24.51;49.05;100616.06;4957116;28;20043;-71
2021/07/27 21:59:17;;;;;;;4.40;2.50;;;;;;;24.52;48.91;100612.34;4942403;28;20031;-71
2021/07/27 22:01:43;;;;;;;4.38;2.10;;;;;;;24.52;49.21;100618.53;4954504;28;20516;-67
2021/07/27 22:04:09;;;;;;;3.80;1.88;;;;;;;24.52;49.37;100618.53;4939370;29;20028;-67
2021/07/27 22:06:34;;;;;;;5.82;2.35;;;;;;;24.54;49.36;100610.25;4939453;29;20076;-67
2021/07/27 22:09:00;;;;;;;3.30;2.10;;;;;;;24.54;49.19;100615.59;4957866;28;20239;-68
2021/07/27 22:11:25;;;;;;;3.15;2.13;;;;;;;24.54;49.61;100608.38;4958264;28;20070;-67
2021/07/27 22:13:51;;;;;;;5.03;2.42;;;;;;;24.55;49.48;100617.22;4953795;29;20472;-69
2021/07/27 22:16:16;;;;;;;3.50;2.17;;;;;;;24.56;49.29;100618.88;4959359;28;20373;-69
2021/07/27 22:18:42;;;;;;;3.70;2.10;;;;;;;24.55;49.39;100618.06;4953429;28;20035;-69
2021/07/27 22:21:07;;;;;;;4.95;2.40;;;;;;;24.56;49.35;100613.50;4959234;28;20055;-74
2021/07/27 22:23:32;;;;;;;3.47;2.33;;;;;;;24.57;49.30;100615.13;4955452;28;20046;-68
2021/07/27 22:25:58;;;;;;;4.72;2.33;;;;;;;24.56;49.29;100611.63;4936496;28;20035;-67
2021/07/27 22:28:24;;;;;;;3.97;2.40;;;;;;;24.57;49.41;100604.41;4961032;28;20038;-69
2021/07/27 22:30:50;;;;;;;3.92;2.42;;;;;;;24.56;49.49;100597.41;4939515;29;20043;-67
2021/07/27 22:33:15;;;;;;;4.20;2.38;;;;;;;24.56;49.01;100597.41;4957048;28;20499;-67
2021/07/27 22:35:40;;;;;;;4.32;2.25;;;;;;;24.56;49.03;100597.41;4958409;28;20358;-67
2021/07/27 22:38:06;;;;;;;3.28;2.10;;;;;;;24.56;49.35;100602.78;4956079;28;20492;-70
2021/07/27 22:40:31;;;;;;;4.20;2.28;;;;;;;24.55;48.90;100603.81;4959272;28;20733;-70
2021/07/27 22:42:57;;;;;;;3.58;2.20;;;;;;;24.56;49.05;100605.47;4956225;28;20473;-67
2021/07/27 22:45:22;;;;;;;3.38;2.33;;;;;;;24.56;48.94;100600.09;4958177;28;20050;-68
2021/07/27 22:47:48;;;;;;;3.47;2.30;;;;;;;24.56;48.83;100597.41;4956949;28;20072;-67
2021/07/27 22:50:14;;;;;;;4.00;2.47;;;;;;;24.56;49.05;100600.91;4953108;28;20126;-67
2021/07/27 22:52:39;;;;;;;3.70;2.30;;;;;;;24.56;48.98;100592.03;4958941;28;20027;-67
2021/07/27 22:55:05;;;;;;;3.88;2.33;;;;;;;24.56;49.03;100592.03;4938631;29;20070;-67
2021/07/27 22:57:31;;;;;;;5.22;2.95;;;;;;;24.56;48.75;100592.03;4958536;28;20034;-67
2021/07/27 22:59:56;;;;;;;3.00;2.10;;;;;;;24.56;49.03;100586.69;4955882;28;20046;-67
2021/07/27 23:02:22;;;;;;;3.90;2.30;;;;;;;24.55;48.65;100585.06;4955871;28;20544;-67
2021/07/27 23:04:47;;;;;;;3.13;2.10;;;;;;;24.56;48.79;100589.38;4953035;28;20421;-71
2021/07/27 23:07:13;;;;;;;3.28;2.05;;;;;;;24.55;48.88;100582.38;4938610;28;20043;-67
2021/07/27 23:09:39;;;;;;;4.53;2.00;;;;;;;24.56;49.03;100578.63;4955134;28;20031;-67
2021/07/27 23:12:04;;;;;;;3.90;2.30;;;;;;;24.56;48.79;100576.78;4955272;28;20058;-67
2021/07/27 23:14:30;;;;;;;3.45;2.25;;;;;;;24.57;49.03;100574.91;4955101;28;20057;-68
2021/07/27 23:16:55;;;;;;;2.70;1.85;;;;;;;24.56;48.79;100573.28;4955551;28;20042;-68
2021/07/27 23:19:21;;;;;;;2.80;2.30;;;;;;;24.55;49.03;100568.97;4957642;28;20501;-70
2021/07/27 23:21:46;;;;;;;2.55;1.92;;;;;;;24.56;48.65;100565.22;4956562;28;20051;-71
2021/07/27 23:24:14;;;;;;;3.38;2.20;;;;;;;24.55;48.82;100569.78;4951853;28;20050;-69
2021/07/27 23:26:40;;;;;;;3.95;2.03;;;;;;;24.55;48.92;100574.31;4957620;28;20091;-67
2021/07/27 23:29:08;;;;;;;3.33;2.00;;;;;;;24.56;48.54;100565.22;4954885;28;20737;-73
2021/07/27 23:31:34;;;;;;;3.30;2.03;;;;;;;24.55;48.75;100568.97;4935257;28;20102;-67
2021/07/27 23:34:00;;;;;;;3.30;2.03;;;;;;;24.55;48.56;100559.06;4957318;28;20035;-68
2021/07/27 23:36:25;;;;;;;3.03;1.92;;;;;;;24.54;48.93;100564.66;4954750;28;20032;-67
2021/07/27 23:38:51;;;;;;;2.97;2.20;;;;;;;24.55;48.53;100558.22;4957759;28;20050;-69
2021/07/27 23:41:16;;;;;;;3.45;1.92;;;;;;;24.56;48.83;100557.19;4954706;28;20484;-67
2021/07/27 23:43:42;;;;;;;3.05;1.70;;;;;;;24.54;48.46;100552.06;4957778;28;20475;-68
2021/07/27 23:46:10;;;;;;;2.65;2.00;;;;;;;24.55;48.91;100547.50;4954915;28;20071;-77
2021/07/27 23:48:35;;;;;;;4.80;1.92;;;;;;;24.54;48.62;100557.41;4952696;28;20031;-67
2021/07/27 23:51:08;;;;;;;3.92;2.05;;;;;;;24.53;48.70;100557.66;4956683;28;20065;-67
2021/07/27 23:53:34;;;;;;;3.22;1.92;;;;;;;24.54;48.82;100556.59;4955099;28;20023;-70
2021/07/27 23:56:00;;;;;;;1.95;1.38;;;;;;;24.54;48.69;100557.41;4956990;28;20400;-67
2021/07/27 23:58:27;;;;;;;3.10;2.15;;;;;;;24.54;48.59;100559.28;4955438;28;20043;-69
